createdAt,value
2022-09-07T00:00:14.340Z,1013.33
2022-09-07T00:01:16.631Z,1013.16
2022-09-07T00:02:15.236Z,1013.44
2022-09-07T00:03:14.787Z,1013.54
2022-09-07T00:04:12.802Z,1013.68
2022-09-07T00:05:14.966Z,1013.65
2022-09-07T00:06:15.722Z,1013.65
2022-09-07T00:07:15.357Z,1013.77
2022-09-07T00:08:14.846Z,1013.78
2022-09-07T00:09:15.414Z,1013.81
2022-09-07T00:10:13.318Z,1013.81
2022-09-07T00:11:13.337Z,1013.81
2022-09-07T00:12:13.209Z,1013.84
2022-09-07T00:13:15.504Z,1013.86
2022-09-07T00:14:13.448Z,1013.92
2022-09-07T00:15:13.221Z,1013.90
2022-09-07T00:16:13.373Z,1013.87
2022-09-07T00:17:13.713Z,1013.78
2022-09-07T00:18:13.936Z,1013.81
2022-09-07T00:19:12.787Z,1013.91
2022-09-07T00:20:14.186Z,1013.90
2022-09-07T00:21:13.265Z,1013.88
2022-09-07T00:22:13.483Z,1013.92
2022-09-07T00:23:16.364Z,1013.96
2022-09-07T00:24:15.443Z,1013.84
2022-09-07T00:25:13.572Z,1013.88
2022-09-07T00:26:13.391Z,1013.83
2022-09-07T00:27:15.424Z,1013.82
2022-09-07T00:28:13.421Z,1013.83
2022-09-07T00:29:13.447Z,1013.90
2022-09-07T00:30:14.499Z,1014.01
2022-09-07T00:31:13.508Z,1014.01
2022-09-07T00:32:13.380Z,1014.00
2022-09-07T00:33:14.867Z,1014.12
2022-09-07T00:34:14.230Z,1014.12
2022-09-07T00:35:13.443Z,1014.14
2022-09-07T00:36:13.766Z,1014.18
2022-09-07T00:37:14.221Z,1014.13
2022-09-07T00:38:14.237Z,1014.15
2022-09-07T00:39:13.393Z,1014.09
2022-09-07T00:40:13.423Z,1014.05
2022-09-07T00:41:13.369Z,1014.09
2022-09-07T00:42:13.413Z,1014.11
2022-09-07T00:43:13.442Z,1014.14
2022-09-07T00:44:14.933Z,1014.15
2022-09-07T00:45:12.827Z,1014.13
2022-09-07T00:46:13.824Z,1014.15
2022-09-07T00:47:13.822Z,1014.09
2022-09-07T00:48:14.048Z,1014.14
2022-09-07T00:49:12.922Z,1014.20
2022-09-07T00:50:14.463Z,1014.20
2022-09-07T00:51:13.396Z,1014.19
2022-09-07T00:52:13.199Z,1014.25
2022-09-07T00:53:14.110Z,1014.33
2022-09-07T00:54:15.675Z,1014.38
2022-09-07T00:55:13.900Z,1014.44
2022-09-07T00:56:12.802Z,1014.45
2022-09-07T00:57:19.050Z,1014.46
2022-09-07T00:58:12.963Z,1014.44
2022-09-07T00:59:13.238Z,1014.47
2022-09-07T01:00:13.280Z,1014.48
2022-09-07T01:01:13.179Z,1014.45
2022-09-07T01:02:13.203Z,1014.48
2022-09-07T01:03:13.530Z,1014.49
2022-09-07T01:04:13.551Z,1014.45
2022-09-07T01:05:14.811Z,1014.41
2022-09-07T01:06:15.163Z,1014.37
2022-09-07T01:07:13.352Z,1014.30
2022-09-07T01:08:13.540Z,1014.21
2022-09-07T01:09:13.434Z,1014.18
2022-09-07T01:10:13.444Z,1014.17
2022-09-07T01:11:14.546Z,1014.13
2022-09-07T01:12:13.942Z,1014.13
2022-09-07T01:13:12.800Z,1014.18
2022-09-07T01:14:13.725Z,1014.21
2022-09-07T01:15:15.285Z,1014.26
2022-09-07T01:16:13.562Z,1014.32
2022-09-07T01:17:13.444Z,1014.35
2022-09-07T01:18:13.348Z,1014.30
2022-09-07T01:19:13.644Z,1014.25
2022-09-07T01:20:13.672Z,1014.26
2022-09-07T01:21:13.714Z,1014.21
2022-09-07T01:22:13.652Z,1014.21
2022-09-07T01:23:13.470Z,1014.19
2022-09-07T01:24:13.329Z,1014.18
2022-09-07T01:25:13.172Z,1014.16
2022-09-07T01:26:13.089Z,1014.15
2022-09-07T01:27:13.040Z,1014.08
2022-09-07T01:28:12.984Z,1014.07
2022-09-07T01:29:13.100Z,1014.04
2022-09-07T01:30:13.140Z,1014.09
2022-09-07T01:31:13.320Z,1014.08
2022-09-07T01:32:13.523Z,1014.11
2022-09-07T01:33:13.387Z,1014.10
2022-09-07T01:34:13.844Z,1014.08
2022-09-07T01:35:13.764Z,1014.14
2022-09-07T01:36:13.646Z,1014.13
2022-09-07T01:37:13.426Z,1014.18
2022-09-07T01:38:13.457Z,1014.13
2022-09-07T01:39:13.336Z,1014.15
2022-09-07T01:40:13.666Z,1014.09
2022-09-07T01:41:13.502Z,1014.10
2022-09-07T01:42:13.337Z,1014.04
2022-09-07T01:43:13.317Z,1014.05
2022-09-07T01:44:13.237Z,1014.02
2022-09-07T01:45:13.109Z,1014.05
2022-09-07T01:46:13.371Z,1014.02
2022-09-07T01:47:13.655Z,1014.02
2022-09-07T01:48:13.743Z,1013.94
2022-09-07T01:49:13.984Z,1013.88
2022-09-07T01:50:12.907Z,1013.84
2022-09-07T01:51:12.781Z,1013.80
2022-09-07T01:52:13.678Z,1013.76
2022-09-07T01:53:13.545Z,1013.72
2022-09-07T01:54:13.386Z,1013.71
2022-09-07T01:55:13.406Z,1013.72
2022-09-07T01:56:13.320Z,1013.72
2022-09-07T01:57:13.355Z,1013.67
2022-09-07T01:58:13.379Z,1013.62
2022-09-07T01:59:13.280Z,1013.63
2022-09-07T02:00:13.176Z,1013.57
2022-09-07T02:01:13.401Z,1013.49
2022-09-07T02:02:13.706Z,1013.41
2022-09-07T02:03:14.189Z,1013.29
2022-09-07T02:04:13.398Z,1013.28
2022-09-07T02:05:13.299Z,1013.27
2022-09-07T02:06:13.197Z,1013.23
2022-09-07T02:07:13.108Z,1013.19
2022-09-07T02:08:13.027Z,1013.20
2022-09-07T02:09:12.877Z,1013.28
2022-09-07T02:10:13.726Z,1013.32
2022-09-07T02:11:13.606Z,1013.24
2022-09-07T02:12:13.492Z,1013.16
2022-09-07T02:13:13.316Z,1013.14
2022-09-07T02:14:13.148Z,1013.12
2022-09-07T02:15:13.390Z,1013.13
2022-09-07T02:16:13.742Z,1013.09
2022-09-07T02:17:13.637Z,1013.02
2022-09-07T02:18:13.990Z,1012.95
2022-09-07T02:19:12.978Z,1012.89
2022-09-07T02:20:13.162Z,1012.83
2022-09-07T02:21:13.062Z,1012.73
2022-09-07T02:22:13.502Z,1012.71
2022-09-07T02:23:13.614Z,1012.63
2022-09-07T02:24:14.190Z,1012.61
2022-09-07T02:25:13.153Z,1012.55
2022-09-07T02:26:13.047Z,1012.53
2022-09-07T02:27:14.703Z,1012.51
2022-09-07T02:28:13.794Z,1012.50
2022-09-07T02:29:14.135Z,1012.38
2022-09-07T02:30:13.078Z,1012.34
2022-09-07T02:31:13.046Z,1012.28
2022-09-07T02:32:13.176Z,1012.27
2022-09-07T02:33:13.091Z,1012.27
2022-09-07T02:34:13.046Z,1012.28
2022-09-07T02:35:13.155Z,1012.26
2022-09-07T02:36:13.025Z,1012.26
2022-09-07T02:37:13.233Z,1012.22
2022-09-07T02:38:13.505Z,1012.22
2022-09-07T02:39:13.810Z,1012.19
2022-09-07T02:40:13.832Z,1012.21
2022-09-07T02:41:13.986Z,1012.17
2022-09-07T02:42:13.061Z,1012.13
2022-09-07T02:43:13.100Z,1012.12
2022-09-07T02:44:13.417Z,1012.14
2022-09-07T02:45:13.666Z,1012.09
2022-09-07T02:46:14.117Z,1012.09
2022-09-07T02:47:13.342Z,1012.07
2022-09-07T02:48:13.528Z,1012.05
2022-09-07T02:49:13.834Z,1012.05
2022-09-07T02:50:13.692Z,1012.04
2022-09-07T02:51:13.629Z,1012.05
2022-09-07T02:52:13.472Z,1012.05
2022-09-07T02:53:13.290Z,1012.06
2022-09-07T02:54:13.561Z,1012.06
2022-09-07T02:55:15.068Z,1012.07
2022-09-07T02:56:13.119Z,1012.09
2022-09-07T02:57:13.410Z,1012.11
2022-09-07T02:58:13.487Z,1012.13
2022-09-07T02:59:13.550Z,1012.09
2022-09-07T03:00:13.675Z,1012.09
2022-09-07T03:01:13.563Z,1012.11
2022-09-07T03:02:13.670Z,1012.11
2022-09-07T03:03:13.621Z,1012.10
2022-09-07T03:04:13.441Z,1012.08
2022-09-07T03:05:13.270Z,1012.14
2022-09-07T03:06:13.234Z,1012.09
2022-09-07T03:07:13.637Z,1012.11
2022-09-07T03:08:13.727Z,1012.03
2022-09-07T03:09:13.652Z,1012.07
2022-09-07T03:10:13.484Z,1012.08
2022-09-07T03:11:13.374Z,1012.05
2022-09-07T03:12:13.448Z,1012.03
2022-09-07T03:13:13.481Z,1012.05
2022-09-07T03:14:13.757Z,1012.05
2022-09-07T03:15:14.479Z,1012.05
2022-09-07T03:16:13.499Z,1012.06
2022-09-07T03:17:13.423Z,1012.04
2022-09-07T03:18:13.327Z,1012.03
2022-09-07T03:19:14.823Z,1012.00
2022-09-07T03:20:13.674Z,1012.04
2022-09-07T03:21:13.537Z,1012.03
2022-09-07T03:22:13.414Z,1012.01
2022-09-07T03:23:13.575Z,1012.05
2022-09-07T03:24:13.418Z,1012.02
2022-09-07T03:25:13.324Z,1012.02
2022-09-07T03:26:13.394Z,1012.01
2022-09-07T03:27:13.423Z,1012.00
2022-09-07T03:28:15.271Z,1011.97
2022-09-07T03:29:13.298Z,1011.95
2022-09-07T03:30:13.364Z,1011.97
2022-09-07T03:31:13.359Z,1011.97
2022-09-07T03:32:13.323Z,1011.99
2022-09-07T03:33:13.245Z,1012.01
2022-09-07T03:34:13.061Z,1012.04
2022-09-07T03:35:14.309Z,1012.06
2022-09-07T03:36:13.406Z,1012.08
2022-09-07T03:37:13.356Z,1012.06
2022-09-07T03:38:13.277Z,1012.12
2022-09-07T03:39:14.421Z,1012.12
2022-09-07T03:40:13.394Z,1012.18
2022-09-07T03:41:13.368Z,1012.19
2022-09-07T03:42:13.497Z,1012.18
2022-09-07T03:43:13.422Z,1012.18
2022-09-07T03:44:13.424Z,1012.15
2022-09-07T03:45:13.361Z,1012.15
2022-09-07T03:46:13.628Z,1012.18
2022-09-07T03:47:13.591Z,1012.16
2022-09-07T03:48:13.523Z,1012.15
2022-09-07T03:49:13.566Z,1012.14
2022-09-07T03:50:13.661Z,1012.10
2022-09-07T03:51:15.262Z,1012.09
2022-09-07T03:52:13.112Z,1012.15
2022-09-07T03:53:13.133Z,1012.13
2022-09-07T03:54:14.000Z,1012.15
2022-09-07T03:55:13.047Z,1012.17
2022-09-07T03:56:13.274Z,1012.14
2022-09-07T03:57:13.471Z,1012.13
2022-09-07T03:58:13.586Z,1012.14
2022-09-07T03:59:13.450Z,1012.14
2022-09-07T04:00:13.508Z,1012.14
2022-09-07T04:01:13.797Z,1012.14
2022-09-07T04:02:13.656Z,1012.14
2022-09-07T04:03:13.941Z,1012.16
2022-09-07T04:04:12.778Z,1012.13
2022-09-07T04:05:13.591Z,1012.13
2022-09-07T04:06:13.383Z,1012.11
2022-09-07T04:07:13.308Z,1012.17
2022-09-07T04:08:13.256Z,1012.15
2022-09-07T04:09:13.407Z,1012.21
2022-09-07T04:10:13.470Z,1012.26
2022-09-07T04:11:13.499Z,1012.29
2022-09-07T04:12:13.882Z,1012.25
2022-09-07T04:13:13.802Z,1012.21
2022-09-07T04:14:13.945Z,1012.20
2022-09-07T04:15:14.010Z,1012.17
2022-09-07T04:16:12.863Z,1012.14
2022-09-07T04:17:13.760Z,1012.15
2022-09-07T04:18:18.709Z,1012.14
2022-09-07T04:19:13.808Z,1012.17
2022-09-07T04:20:14.326Z,1012.17
2022-09-07T04:21:13.305Z,1012.15
2022-09-07T04:22:13.217Z,1012.14
2022-09-07T04:23:18.177Z,1012.13
2022-09-07T04:24:13.170Z,1012.12
2022-09-07T04:25:13.323Z,1012.18
2022-09-07T04:26:13.207Z,1012.18
2022-09-07T04:27:13.094Z,1012.19
2022-09-07T04:28:12.841Z,1012.21
2022-09-07T04:29:13.781Z,1012.23
2022-09-07T04:30:13.926Z,1012.22
2022-09-07T04:31:13.269Z,1012.26
2022-09-07T04:32:15.844Z,1012.23
2022-09-07T04:33:13.218Z,1012.27
2022-09-07T04:34:13.378Z,1012.32
2022-09-07T04:35:13.333Z,1012.31
2022-09-07T04:36:13.282Z,1012.29
2022-09-07T04:37:13.146Z,1012.27
2022-09-07T04:38:12.986Z,1012.25
2022-09-07T04:39:12.864Z,1012.23
2022-09-07T04:40:14.077Z,1012.21
2022-09-07T04:41:12.970Z,1012.21
2022-09-07T04:42:12.958Z,1012.20
2022-09-07T04:43:14.047Z,1012.21
2022-09-07T04:44:16.612Z,1012.21
2022-09-07T04:45:12.872Z,1012.18
2022-09-07T04:46:14.148Z,1012.21
2022-09-07T04:47:15.021Z,1012.21
2022-09-07T04:48:12.844Z,1012.18
2022-09-07T04:49:14.077Z,1012.21
2022-09-07T04:50:12.951Z,1012.20
2022-09-07T04:51:12.767Z,1012.18
2022-09-07T04:52:13.817Z,1012.17
2022-09-07T04:53:13.673Z,1012.13
2022-09-07T04:54:13.882Z,1012.16
2022-09-07T04:55:14.064Z,1012.16
2022-09-07T04:56:16.797Z,1012.14
2022-09-07T04:57:13.015Z,1012.17
2022-09-07T04:58:12.871Z,1012.16
2022-09-07T04:59:13.885Z,1012.17
2022-09-07T05:00:12.661Z,1012.14
2022-09-07T05:01:13.617Z,1012.09
2022-09-07T05:02:13.924Z,1012.06
2022-09-07T05:03:13.232Z,1012.04
2022-09-07T05:04:13.092Z,1012.05
2022-09-07T05:05:12.972Z,1012.05
2022-09-07T05:06:12.928Z,1012.05
2022-09-07T05:07:12.877Z,1012.02
2022-09-07T05:08:13.776Z,1012.06
2022-09-07T05:09:13.693Z,1012.03
2022-09-07T05:10:13.672Z,1012.04
2022-09-07T05:11:13.571Z,1012.04
2022-09-07T05:12:13.607Z,1012.02
2022-09-07T05:13:13.797Z,1012.05
2022-09-07T05:14:13.815Z,1012.06
2022-09-07T05:15:15.705Z,1012.09
2022-09-07T05:16:13.741Z,1012.07
2022-09-07T05:17:13.656Z,1012.07
2022-09-07T05:18:13.853Z,1012.08
2022-09-07T05:19:13.812Z,1012.08
2022-09-07T05:20:20.076Z,1012.12
2022-09-07T05:21:13.391Z,1012.12
2022-09-07T05:22:13.384Z,1012.16
2022-09-07T05:23:13.286Z,1012.16
2022-09-07T05:24:13.396Z,1012.21
2022-09-07T05:25:13.571Z,1012.22
2022-09-07T05:26:13.740Z,1012.24
2022-09-07T05:27:13.578Z,1012.27
2022-09-07T05:28:18.579Z,1012.23
2022-09-07T05:32:18.494Z,1012.34
2022-09-07T05:33:13.393Z,1012.32
2022-09-07T05:35:13.948Z,1012.31
2022-09-07T05:36:13.278Z,1012.27
2022-09-07T05:37:13.107Z,1012.31
2022-09-07T05:38:13.057Z,1012.33
2022-09-07T05:39:13.345Z,1012.35
2022-09-07T05:40:14.083Z,1012.34
2022-09-07T05:41:13.005Z,1012.39
2022-09-07T05:42:12.981Z,1012.39
2022-09-07T05:43:13.375Z,1012.38
2022-09-07T05:45:13.426Z,1012.40
2022-09-07T05:46:13.592Z,1012.41
2022-09-07T05:47:13.631Z,1012.44
2022-09-07T05:48:13.539Z,1012.47
2022-09-07T05:49:13.534Z,1012.49
2022-09-07T05:50:13.698Z,1012.50
2022-09-07T05:51:13.576Z,1012.50
2022-09-07T05:52:13.759Z,1012.49
2022-09-07T05:53:13.877Z,1012.51
2022-09-07T05:54:14.045Z,1012.50
2022-09-07T05:55:28.816Z,1012.53
2022-09-07T05:56:13.590Z,1012.54
2022-09-07T05:57:13.481Z,1012.58
2022-09-07T05:58:13.386Z,1012.57
2022-09-07T05:59:13.150Z,1012.55
2022-09-07T06:00:13.139Z,1012.53
2022-09-07T06:01:13.126Z,1012.56
2022-09-07T06:02:13.294Z,1012.54
2022-09-07T06:03:13.870Z,1012.54
2022-09-07T06:04:13.240Z,1012.57
2022-09-07T06:05:13.232Z,1012.55
2022-09-07T06:06:13.043Z,1012.57
2022-09-07T06:07:22.984Z,1012.60
2022-09-07T06:08:13.347Z,1012.59
2022-09-07T06:09:13.202Z,1012.61
2022-09-07T06:10:44.256Z,1012.61
2022-09-07T06:11:13.605Z,1012.59
2022-09-07T06:12:13.560Z,1012.61
2022-09-07T06:13:13.716Z,1012.60
2022-09-07T06:14:13.576Z,1012.57
2022-09-07T06:15:13.432Z,1012.58
2022-09-07T06:16:13.411Z,1012.59
2022-09-07T06:17:15.278Z,1012.57
2022-09-07T06:18:13.122Z,1012.55
2022-09-07T06:19:14.835Z,1012.58
2022-09-07T06:20:13.853Z,1012.56
2022-09-07T06:21:14.001Z,1012.50
2022-09-07T06:22:13.092Z,1012.46
2022-09-07T06:23:13.343Z,1012.48
2022-09-07T06:24:14.471Z,1012.47
2022-09-07T06:25:14.911Z,1012.47
2022-09-07T06:26:13.032Z,1012.49
2022-09-07T06:27:12.952Z,1012.48
2022-09-07T06:28:12.785Z,1012.48
2022-09-07T06:29:13.636Z,1012.51
2022-09-07T06:30:13.423Z,1012.57
2022-09-07T06:31:13.263Z,1012.57
2022-09-07T06:32:43.038Z,1012.59
2022-09-07T06:33:14.328Z,1012.58
2022-09-07T06:34:13.239Z,1012.53
2022-09-07T06:35:13.153Z,1012.56
2022-09-07T06:36:12.999Z,1012.55
2022-09-07T06:37:12.875Z,1012.53
2022-09-07T06:38:13.801Z,1012.57
2022-09-07T06:39:13.942Z,1012.56
2022-09-07T06:40:13.195Z,1012.53
2022-09-07T06:42:13.229Z,1012.58
2022-09-07T06:43:13.055Z,1012.58
2022-09-07T06:44:13.114Z,1012.58
2022-09-07T06:45:12.946Z,1012.56
2022-09-07T06:47:13.059Z,1012.63
2022-09-07T06:48:13.188Z,1012.65
2022-09-07T06:49:13.074Z,1012.65
2022-09-07T06:50:12.997Z,1012.71
2022-09-07T06:51:13.994Z,1012.70
2022-09-07T06:52:13.035Z,1012.74
2022-09-07T06:53:35.234Z,1012.76
2022-09-07T06:55:15.705Z,1012.83
2022-09-07T06:56:14.064Z,1012.85
2022-09-07T06:57:13.309Z,1012.88
2022-09-07T06:58:13.493Z,1012.87
2022-09-07T06:59:13.337Z,1012.90
2022-09-07T07:00:14.699Z,1012.95
2022-09-07T07:01:15.417Z,1012.91
2022-09-07T07:02:13.753Z,1012.94
2022-09-07T07:03:13.824Z,1012.92
2022-09-07T07:04:13.710Z,1012.94
2022-09-07T07:05:13.937Z,1012.94
2022-09-07T07:06:13.997Z,1012.91
2022-09-07T07:07:13.019Z,1012.96
2022-09-07T07:08:14.717Z,1012.96
2022-09-07T07:09:13.594Z,1013.00
2022-09-07T07:10:13.509Z,1013.03
2022-09-07T07:11:13.394Z,1013.02
2022-09-07T07:12:13.618Z,1013.07
2022-09-07T07:14:13.372Z,1013.12
2022-09-07T07:15:13.733Z,1013.13
2022-09-07T07:16:13.675Z,1013.13
2022-09-07T07:17:13.744Z,1013.15
2022-09-07T07:18:21.274Z,1013.12
2022-09-07T07:19:13.788Z,1013.13
2022-09-07T07:20:13.621Z,1013.09
2022-09-07T07:21:13.697Z,1013.12
2022-09-07T07:22:36.036Z,1013.10
2022-09-07T07:23:13.254Z,1013.08
2022-09-07T07:24:13.309Z,1013.06
2022-09-07T07:25:13.191Z,1013.05
2022-09-07T07:26:13.283Z,1013.07
2022-09-07T07:27:13.198Z,1013.02
2022-09-07T07:29:15.837Z,1013.03
2022-09-07T07:30:13.063Z,1013.07
2022-09-07T07:31:13.286Z,1013.05
2022-09-07T07:32:13.572Z,1013.06
2022-09-07T07:33:13.927Z,1013.12
2022-09-07T07:34:12.957Z,1013.09
2022-09-07T07:35:14.106Z,1013.08
2022-09-07T07:36:14.924Z,1013.09
2022-09-07T07:37:13.124Z,1013.10
2022-09-07T07:42:13.830Z,1013.19
2022-09-07T07:43:14.119Z,1013.16
2022-09-07T07:44:14.850Z,1013.16
2022-09-07T07:46:13.942Z,1013.18
2022-09-07T07:47:12.805Z,1013.16
2022-09-07T07:48:14.073Z,1013.18
2022-09-07T07:49:12.979Z,1013.15
2022-09-07T07:50:33.969Z,1013.17
2022-09-07T07:51:14.740Z,1013.13
2022-09-07T07:53:42.459Z,1013.19
2022-09-07T07:54:15.654Z,1013.23
2022-09-07T07:55:43.410Z,1013.22
2022-09-07T07:56:16.526Z,1013.25
2022-09-07T07:57:13.697Z,1013.24
2022-09-07T07:58:13.786Z,1013.23
2022-09-07T07:59:15.867Z,1013.25
2022-09-07T08:00:14.429Z,1013.31
2022-09-07T08:01:14.096Z,1013.28
2022-09-07T08:02:14.952Z,1013.27
2022-09-07T08:03:13.238Z,1013.28
2022-09-07T08:04:13.429Z,1013.29
2022-09-07T08:05:13.392Z,1013.32
2022-09-07T08:06:15.114Z,1013.34
2022-09-07T08:07:13.185Z,1013.32
2022-09-07T08:08:15.967Z,1013.34
2022-09-07T08:09:14.030Z,1013.35
2022-09-07T08:10:15.062Z,1013.36
2022-09-07T08:11:13.431Z,1013.37
2022-09-07T08:12:13.231Z,1013.40
2022-09-07T08:13:13.130Z,1013.43
2022-09-07T08:14:14.646Z,1013.45
2022-09-07T08:15:13.583Z,1013.47
2022-09-07T08:16:13.720Z,1013.48
2022-09-07T08:17:13.623Z,1013.49
2022-09-07T08:18:13.533Z,1013.48
2022-09-07T08:19:13.872Z,1013.53
2022-09-07T08:20:14.421Z,1013.53
2022-09-07T08:21:13.759Z,1013.53
2022-09-07T08:22:13.996Z,1013.53
2022-09-07T08:23:12.977Z,1013.53
2022-09-07T08:24:16.052Z,1013.55
2022-09-07T08:25:13.191Z,1013.60
2022-09-07T08:26:13.114Z,1013.56
2022-09-07T08:27:13.485Z,1013.56
2022-09-07T08:28:13.387Z,1013.55
2022-09-07T08:29:14.943Z,1013.55
2022-09-07T08:30:15.500Z,1013.60
2022-09-07T08:31:13.439Z,1013.62
2022-09-07T08:32:13.424Z,1013.66
2022-09-07T08:33:13.471Z,1013.64
2022-09-07T08:34:13.692Z,1013.66
2022-09-07T08:35:14.069Z,1013.64
2022-09-07T08:36:13.054Z,1013.69
2022-09-07T08:37:13.376Z,1013.73
2022-09-07T08:38:19.147Z,1013.72
2022-09-07T08:39:13.818Z,1013.71
2022-09-07T08:40:15.704Z,1013.69
2022-09-07T08:41:15.220Z,1013.75
2022-09-07T08:42:13.299Z,1013.77
2022-09-07T08:43:14.595Z,1013.72
2022-09-07T08:44:15.495Z,1013.65
2022-09-07T08:45:15.207Z,1013.76
2022-09-07T08:46:17.338Z,1013.72
2022-09-07T08:47:15.284Z,1013.69
2022-09-07T08:48:13.513Z,1013.72
2022-09-07T08:49:15.101Z,1013.71
2022-09-07T08:50:13.227Z,1013.69
2022-09-07T08:51:19.060Z,1013.69
2022-09-07T08:52:13.379Z,1013.70
2022-09-07T08:53:16.806Z,1013.63
2022-09-07T08:54:13.683Z,1013.63
2022-09-07T08:55:17.763Z,1013.69
2022-09-07T08:56:17.799Z,1013.67
2022-09-07T08:57:22.651Z,1013.72
2022-09-07T08:58:27.034Z,1013.68
2022-09-07T08:59:13.079Z,1013.71
2022-09-07T09:00:16.987Z,1013.73
2022-09-07T09:01:32.460Z,1013.67
2022-09-07T09:02:35.068Z,1013.69
2022-09-07T09:03:32.024Z,1013.72
2022-09-07T09:04:17.678Z,1013.67
2022-09-07T09:05:19.520Z,1013.66
2022-09-07T09:06:18.029Z,1013.68
2022-09-07T09:07:17.826Z,1013.71
2022-09-07T09:08:13.889Z,1013.70
2022-09-07T09:09:13.985Z,1013.72
2022-09-07T09:10:18.118Z,1013.73
2022-09-07T09:11:16.554Z,1013.66
2022-09-07T09:12:15.389Z,1013.70
2022-09-07T09:13:15.160Z,1013.67
2022-09-07T09:14:13.126Z,1013.67
2022-09-07T09:15:13.175Z,1013.66
2022-09-07T09:16:13.114Z,1013.64
2022-09-07T09:17:16.737Z,1013.63
2022-09-07T09:18:14.546Z,1013.58
2022-09-07T09:19:17.199Z,1013.56
2022-09-07T09:20:17.703Z,1013.61
2022-09-07T09:21:18.048Z,1013.55
2022-09-07T09:22:17.417Z,1013.51
2022-09-07T09:23:18.403Z,1013.58
2022-09-07T09:24:18.305Z,1013.53
2022-09-07T09:25:16.580Z,1013.62
2022-09-07T09:26:13.542Z,1013.61
2022-09-07T09:27:18.019Z,1013.57
2022-09-07T09:28:14.106Z,1013.60
2022-09-07T09:29:12.946Z,1013.62
2022-09-07T09:30:12.839Z,1013.56
2022-09-07T09:31:13.913Z,1013.55
2022-09-07T09:32:12.864Z,1013.55
2022-09-07T09:33:14.624Z,1013.56
2022-09-07T09:34:13.582Z,1013.57
2022-09-07T09:35:13.387Z,1013.60
2022-09-07T09:36:14.656Z,1013.55
2022-09-07T09:37:13.584Z,1013.57
2022-09-07T09:38:16.538Z,1013.58
2022-09-07T09:39:18.438Z,1013.59
2022-09-07T09:40:16.870Z,1013.57
2022-09-07T09:41:12.815Z,1013.64
2022-09-07T09:42:15.679Z,1013.57
2022-09-07T09:43:18.270Z,1013.63
2022-09-07T09:44:13.278Z,1013.66
2022-09-07T09:45:15.008Z,1013.67
2022-09-07T09:46:16.237Z,1013.69
2022-09-07T09:47:31.286Z,1013.72
2022-09-07T09:48:17.328Z,1013.76
2022-09-07T09:49:15.416Z,1013.73
2022-09-07T09:52:28.907Z,1013.69
2022-09-07T09:52:43.531Z,1013.68
2022-09-07T09:53:15.324Z,1013.77
2022-09-07T09:54:18.738Z,1013.79
2022-09-07T09:55:33.832Z,1013.74
2022-09-07T09:56:16.226Z,1013.71
2022-09-07T09:57:16.655Z,1013.69
2022-09-07T10:00:27.959Z,1013.77
2022-09-07T10:01:22.701Z,1013.68
2022-09-07T10:04:17.538Z,1013.70
2022-09-07T10:05:16.866Z,1013.67
2022-09-07T10:06:17.263Z,1013.66
2022-09-07T10:07:18.965Z,1013.67
2022-09-07T10:08:16.464Z,1013.69
2022-09-07T10:09:18.878Z,1013.66
2022-09-07T10:10:19.589Z,1013.66
2022-09-07T10:11:13.461Z,1013.61
2022-09-07T10:12:15.889Z,1013.63
2022-09-07T10:13:15.321Z,1013.61
2022-09-07T10:14:14.142Z,1013.62
2022-09-07T10:15:17.087Z,1013.64
2022-09-07T10:16:13.053Z,1013.62
2022-09-07T10:17:13.007Z,1013.57
2022-09-07T10:18:15.348Z,1013.59
2022-09-07T10:19:18.839Z,1013.58
2022-09-07T10:20:12.937Z,1013.58
2022-09-07T10:21:14.283Z,1013.60
2022-09-07T10:22:16.265Z,1013.70
2022-09-07T10:23:15.717Z,1013.69
2022-09-07T10:24:18.188Z,1013.73
2022-09-07T10:25:17.093Z,1013.71
2022-09-07T10:26:16.829Z,1013.70
2022-09-07T10:27:16.375Z,1013.68
2022-09-07T10:28:15.092Z,1013.71
2022-09-07T10:29:13.381Z,1013.68
2022-09-07T10:30:14.078Z,1013.63
2022-09-07T10:31:15.528Z,1013.61
2022-09-07T10:32:14.039Z,1013.66
2022-09-07T10:33:15.972Z,1013.71
2022-09-07T10:34:27.621Z,1013.69
2022-09-07T10:35:16.701Z,1013.66
2022-09-07T10:36:16.998Z,1013.63
2022-09-07T10:37:12.859Z,1013.63
2022-09-07T10:38:18.573Z,1013.64
2022-09-07T10:39:17.819Z,1013.69
2022-09-07T10:40:13.883Z,1013.72
2022-09-07T10:41:15.964Z,1013.69
2022-09-07T10:42:16.196Z,1013.70
2022-09-07T10:43:21.456Z,1013.73
2022-09-07T10:44:17.604Z,1013.71
2022-09-07T10:45:15.065Z,1013.71
2022-09-07T10:46:56.182Z,1013.75
2022-09-07T10:47:16.805Z,1013.76
2022-09-07T10:48:20.036Z,1013.71
2022-09-07T10:49:14.584Z,1013.75
2022-09-07T10:50:22.547Z,1013.78
2022-09-07T10:51:14.830Z,1013.81
2022-09-07T10:52:17.203Z,1013.78
2022-09-07T10:53:39.739Z,1013.82
2022-09-07T10:54:31.776Z,1013.75
2022-09-07T10:55:19.237Z,1013.78
2022-09-07T10:56:16.111Z,1013.79
2022-09-07T10:57:18.070Z,1013.80
2022-09-07T10:58:17.794Z,1013.78
2022-09-07T10:59:16.221Z,1013.75
2022-09-07T11:00:17.153Z,1013.75
2022-09-07T11:01:17.843Z,1013.78
2022-09-07T11:02:17.339Z,1013.78
2022-09-07T11:03:25.627Z,1013.77
2022-09-07T11:04:17.262Z,1013.75
2022-09-07T11:05:17.157Z,1013.76
2022-09-07T11:06:16.689Z,1013.78
2022-09-07T11:07:18.556Z,1013.79
2022-09-07T11:08:16.529Z,1013.78
2022-09-07T11:09:20.030Z,1013.75
2022-09-07T11:10:18.839Z,1013.73
2022-09-07T11:11:18.401Z,1013.78
2022-09-07T11:12:17.384Z,1013.73
2022-09-07T11:13:16.457Z,1013.71
2022-09-07T11:14:17.950Z,1013.70
2022-09-07T11:15:17.791Z,1013.72
2022-09-07T11:17:16.660Z,1013.75
2022-09-07T11:18:21.472Z,1013.73
2022-09-07T11:19:36.146Z,1013.74
2022-09-07T11:20:21.393Z,1013.77
2022-09-07T11:21:56.118Z,1013.76
2022-09-07T11:22:14.318Z,1013.75
2022-09-07T11:23:17.919Z,1013.69
2022-09-07T11:24:18.441Z,1013.68
2022-09-07T11:25:31.494Z,1013.70
2022-09-07T11:26:20.417Z,1013.69
2022-09-07T11:27:16.923Z,1013.68
2022-09-07T11:28:13.739Z,1013.69
2022-09-07T11:29:30.827Z,1013.66
2022-09-07T11:30:17.187Z,1013.70
2022-09-07T11:31:17.842Z,1013.67
2022-09-07T11:32:16.646Z,1013.73
2022-09-07T11:33:16.260Z,1013.68
2022-09-07T11:34:25.874Z,1013.67
2022-09-07T11:35:18.224Z,1013.66
2022-09-07T11:36:15.261Z,1013.67
2022-09-07T11:37:17.498Z,1013.70
2022-09-07T11:38:16.691Z,1013.59
2022-09-07T11:39:19.175Z,1013.57
2022-09-07T11:40:18.611Z,1013.62
2022-09-07T11:41:16.931Z,1013.59
2022-09-07T11:42:44.049Z,1013.57
2022-09-07T11:43:18.198Z,1013.65
2022-09-07T11:44:16.931Z,1013.60
2022-09-07T11:45:17.006Z,1013.59
2022-09-07T11:46:17.239Z,1013.59
2022-09-07T11:47:18.581Z,1013.63
2022-09-07T11:48:19.847Z,1013.62
2022-09-07T11:49:17.745Z,1013.64
2022-09-07T11:50:18.427Z,1013.65
2022-09-07T11:51:17.189Z,1013.61
2022-09-07T11:52:19.203Z,1013.69
2022-09-07T11:53:19.537Z,1013.59
2022-09-07T11:54:19.044Z,1013.62
2022-09-07T11:55:18.533Z,1013.63
2022-09-07T11:56:19.146Z,1013.57
2022-09-07T11:57:19.930Z,1013.56
2022-09-07T11:58:19.123Z,1013.58
2022-09-07T11:59:19.208Z,1013.58
2022-09-07T12:00:17.232Z,1013.55
2022-09-07T12:01:18.792Z,1013.56
2022-09-07T12:02:19.233Z,1013.56
2022-09-07T12:03:22.607Z,1013.50
2022-09-07T12:04:17.725Z,1013.55
2022-09-07T12:05:19.175Z,1013.51
2022-09-07T12:06:19.357Z,1013.54
2022-09-07T12:07:18.915Z,1013.58
2022-09-07T12:08:19.017Z,1013.50
2022-09-07T12:09:17.512Z,1013.39
2022-09-07T12:10:19.248Z,1013.39
2022-09-07T12:11:23.247Z,1013.40
2022-09-07T12:12:19.718Z,1013.39
2022-09-07T12:13:20.013Z,1013.38
2022-09-07T12:14:18.572Z,1013.37
2022-09-07T12:15:20.955Z,1013.42
2022-09-07T12:16:19.502Z,1013.38
2022-09-07T12:17:19.474Z,1013.39
2022-09-07T12:18:19.267Z,1013.41
2022-09-07T12:19:19.261Z,1013.36
2022-09-07T12:20:19.132Z,1013.39
2022-09-07T12:21:18.422Z,1013.43
2022-09-07T12:22:18.307Z,1013.42
2022-09-07T12:23:19.631Z,1013.43
2022-09-07T12:24:17.925Z,1013.47
2022-09-07T12:25:20.381Z,1013.39
2022-09-07T12:26:18.531Z,1013.39
2022-09-07T12:27:19.777Z,1013.40